Aviation Digital Data Service (ADDS)

Output produced by METARs form (0310 UTC 18 June 2019)
found at http://www.aviationweather.gov/metar/data/
 
METAR text: GMML 180300Z 34005KT 8000 NSC 17/15 Q1017 NOSIG
Conditions at: GMML (LAAYOUNE/HASSAN , MA) observed 0300 UTC 18 June 2019
Temperature: 17.0°C (63°F)
Dewpoint: 15.0°C (59°F) [RH = 88%]
Pressure (altimeter): 30.03 inches Hg (1017.0 mb)
Winds: from the NNW (340 degrees) at 6 MPH (5 knots; 2.6 m/s)
Visibility: 5 miles ( 8 km)
Ceiling: at least 12,000 feet AGL
Clouds: sky clear below 12,000 feet AGL
Weather: no significant weather observed at this time

METAR text: GMML 180200Z 36004KT 8000 NSC 17/15 Q1017 NOSIG
Conditions at: GMML (LAAYOUNE/HASSAN , MA) observed 0200 UTC 18 June 2019
Temperature: 17.0°C (63°F)
Dewpoint: 15.0°C (59°F) [RH = 88%]
Pressure (altimeter): 30.03 inches Hg (1017.0 mb)
Winds: from the N (360 degrees) at 5 MPH (4 knots; 2.1 m/s)
Visibility: 5 miles ( 8 km)
Ceiling: at least 12,000 feet AGL
Clouds: sky clear below 12,000 feet AGL
Weather: no significant weather observed at this time

METAR text: GMML 180100Z 34004KT 8000 NSC 18/16 Q1018 NOSIG
Conditions at: GMML (LAAYOUNE/HASSAN , MA) observed 0100 UTC 18 June 2019
Temperature: 18.0°C (64°F)
Dewpoint: 16.0°C (61°F) [RH = 88%]
Pressure (altimeter): 30.06 inches Hg (1018.0 mb)
Winds: from the NNW (340 degrees) at 5 MPH (4 knots; 2.1 m/s)
Visibility: 5 miles ( 8 km)
Ceiling: at least 12,000 feet AGL
Clouds: sky clear below 12,000 feet AGL
Weather: no significant weather observed at this time

METAR text: GMML 180000Z 36005KT 8000 NSC 18/16 Q1019 NOSIG
Conditions at: GMML (LAAYOUNE/HASSAN , MA) observed 0000 UTC 18 June 2019
Temperature: 18.0°C (64°F)
Dewpoint: 16.0°C (61°F) [RH = 88%]
Pressure (altimeter): 30.09 inches Hg (1019.0 mb)
Winds: from the N (360 degrees) at 6 MPH (5 knots; 2.6 m/s)
Visibility: 5 miles ( 8 km)
Ceiling: at least 12,000 feet AGL
Clouds: sky clear below 12,000 feet AGL
Weather: no significant weather observed at this time

METAR text: GMML 172300Z 35006KT CAVOK 19/17 Q1019 NOSIG
Conditions at: GMML (LAAYOUNE/HASSAN , MA) observed 2300 UTC 17 June 2019
Temperature: 19.0°C (66°F)
Dewpoint: 17.0°C (63°F) [RH = 88%]
Pressure (altimeter): 30.09 inches Hg (1019.0 mb)
Winds: from the N (350 degrees) at 7 MPH (6 knots; 3.1 m/s)
Visibility: 6 or more miles (10+ km)
Ceiling: ceiling and visibility are OK
Clouds: unknown
Weather: no significant weather observed at this time

METAR text: GMML 172200Z 35008KT CAVOK 19/17 Q1019 NOSIG
Conditions at: GMML (LAAYOUNE/HASSAN , MA) observed 2200 UTC 17 June 2019
Temperature: 19.0°C (66°F)
Dewpoint: 17.0°C (63°F) [RH = 88%]
Pressure (altimeter): 30.09 inches Hg (1019.0 mb)
Winds: from the N (350 degrees) at 9 MPH (8 knots; 4.1 m/s)
Visibility: 6 or more miles (10+ km)
Ceiling: ceiling and visibility are OK
Clouds: unknown
Weather: no significant weather observed at this time

METAR text: GMML 172100Z 34008KT CAVOK 20/16 Q1019 NOSIG
Conditions at: GMML (LAAYOUNE/HASSAN , MA) observed 2100 UTC 17 June 2019
Temperature: 20.0°C (68°F)
Dewpoint: 16.0°C (61°F) [RH = 78%]
Pressure (altimeter): 30.09 inches Hg (1019.0 mb)
Winds: from the NNW (340 degrees) at 9 MPH (8 knots; 4.1 m/s)
Visibility: 6 or more miles (10+ km)
Ceiling: ceiling and visibility are OK
Clouds: unknown
Weather: no significant weather observed at this time

METAR text: GMML 172000Z 35011KT CAVOK 20/15 Q1018 NOSIG
Conditions at: GMML (LAAYOUNE/HASSAN , MA) observed 2000 UTC 17 June 2019
Temperature: 20.0°C (68°F)
Dewpoint: 15.0°C (59°F) [RH = 73%]
Pressure (altimeter): 30.06 inches Hg (1018.0 mb)
Winds: from the N (350 degrees) at 13 MPH (11 knots; 5.7 m/s)
Visibility: 6 or more miles (10+ km)
Ceiling: ceiling and visibility are OK
Clouds: unknown
Weather: no significant weather observed at this time

METAR text: GMML 171900Z 34013KT CAVOK 21/14 Q1018 NOSIG
Conditions at: GMML (LAAYOUNE/HASSAN , MA) observed 1900 UTC 17 June 2019
Temperature: 21.0°C (70°F)
Dewpoint: 14.0°C (57°F) [RH = 64%]
Pressure (altimeter): 30.06 inches Hg (1018.0 mb)
Winds: from the NNW (340 degrees) at 15 MPH (13 knots; 6.7 m/s)
Visibility: 6 or more miles (10+ km)
Ceiling: ceiling and visibility are OK
Clouds: unknown
Weather: no significant weather observed at this time

METAR text: GMML 171800Z 34013KT CAVOK 23/14 Q1018 NOSIG
Conditions at: GMML (LAAYOUNE/HASSAN , MA) observed 1800 UTC 17 June 2019
Temperature: 23.0°C (73°F)
Dewpoint: 14.0°C (57°F) [RH = 57%]
Pressure (altimeter): 30.06 inches Hg (1018.0 mb)
Winds: from the NNW (340 degrees) at 15 MPH (13 knots; 6.7 m/s)
Visibility: 6 or more miles (10+ km)
Ceiling: ceiling and visibility are OK
Clouds: unknown
Weather: no significant weather observed at this time

METAR text: GMML 171700Z 34012KT CAVOK 24/13 Q1018 NOSIG
Conditions at: GMML (LAAYOUNE/HASSAN , MA) observed 1700 UTC 17 June 2019
Temperature: 24.0°C (75°F)
Dewpoint: 13.0°C (55°F) [RH = 50%]
Pressure (altimeter): 30.06 inches Hg (1018.0 mb)
Winds: from the NNW (340 degrees) at 14 MPH (12 knots; 6.2 m/s)
Visibility: 6 or more miles (10+ km)
Ceiling: ceiling and visibility are OK
Clouds: unknown
Weather: no significant weather observed at this time

METAR text: GMML 171600Z 34014KT CAVOK 25/13 Q1018 NOSIG
Conditions at: GMML (LAAYOUNE/HASSAN , MA) observed 1600 UTC 17 June 2019
Temperature: 25.0°C (77°F)
Dewpoint: 13.0°C (55°F) [RH = 47%]
Pressure (altimeter): 30.06 inches Hg (1018.0 mb)
Winds: from the NNW (340 degrees) at 16 MPH (14 knots; 7.2 m/s)
Visibility: 6 or more miles (10+ km)
Ceiling: ceiling and visibility are OK
Clouds: unknown
Weather: no significant weather observed at this time

METAR text: GMML 171500Z 34012KT CAVOK 25/13 Q1018 NOSIG
Conditions at: GMML (LAAYOUNE/HASSAN , MA) observed 1500 UTC 17 June 2019
Temperature: 25.0°C (77°F)
Dewpoint: 13.0°C (55°F) [RH = 47%]
Pressure (altimeter): 30.06 inches Hg (1018.0 mb)
Winds: from the NNW (340 degrees) at 14 MPH (12 knots; 6.2 m/s)
Visibility: 6 or more miles (10+ km)
Ceiling: ceiling and visibility are OK
Clouds: unknown
Weather: no significant weather observed at this time

METAR text: GMML 171400Z 34012KT CAVOK 26/14 Q1018 NOSIG
Conditions at: GMML (LAAYOUNE/HASSAN , MA) observed 1400 UTC 17 June 2019
Temperature: 26.0°C (79°F)
Dewpoint: 14.0°C (57°F) [RH = 48%]
Pressure (altimeter): 30.06 inches Hg (1018.0 mb)
Winds: from the NNW (340 degrees) at 14 MPH (12 knots; 6.2 m/s)
Visibility: 6 or more miles (10+ km)
Ceiling: ceiling and visibility are OK
Clouds: unknown
Weather: no significant weather observed at this time

METAR text: GMML 171300Z 33012KT CAVOK 25/14 Q1019 NOSIG
Conditions at: GMML (LAAYOUNE/HASSAN , MA) observed 1300 UTC 17 June 2019
Temperature: 25.0°C (77°F)
Dewpoint: 14.0°C (57°F) [RH = 50%]
Pressure (altimeter): 30.09 inches Hg (1019.0 mb)
Winds: from the NNW (330 degrees) at 14 MPH (12 knots; 6.2 m/s)
Visibility: 6 or more miles (10+ km)
Ceiling: ceiling and visibility are OK
Clouds: unknown
Weather: no significant weather observed at this time

METAR text: GMML 171200Z 35011G22KT CAVOK 25/14 Q1019 NOSIG
Conditions at: GMML (LAAYOUNE/HASSAN , MA) observed 1200 UTC 17 June 2019
Temperature: 25.0°C (77°F)
Dewpoint: 14.0°C (57°F) [RH = 50%]
Pressure (altimeter): 30.09 inches Hg (1019.0 mb)
Winds: from the N (350 degrees) at 13 MPH (11 knots; 5.7 m/s)
gusting to 25 MPH (22 knots; 11.3 m/s)
Visibility: 6 or more miles (10+ km)
Ceiling: ceiling and visibility are OK
Clouds: unknown
Weather: no significant weather observed at this time

METAR text: GMML 171100Z 36008KT CAVOK 25/13 Q1019 NOSIG
Conditions at: GMML (LAAYOUNE/HASSAN , MA) observed 1100 UTC 17 June 2019
Temperature: 25.0°C (77°F)
Dewpoint: 13.0°C (55°F) [RH = 47%]
Pressure (altimeter): 30.09 inches Hg (1019.0 mb)
Winds: from the N (360 degrees) at 9 MPH (8 knots; 4.1 m/s)
Visibility: 6 or more miles (10+ km)
Ceiling: ceiling and visibility are OK
Clouds: unknown
Weather: no significant weather observed at this time

METAR text: GMML 171000Z 03009KT CAVOK 23/13 Q1020 NOSIG
Conditions at: GMML (LAAYOUNE/HASSAN , MA) observed 1000 UTC 17 June 2019
Temperature: 23.0°C (73°F)
Dewpoint: 13.0°C (55°F) [RH = 53%]
Pressure (altimeter): 30.12 inches Hg (1020.0 mb)
Winds: from the NNE (30 degrees) at 10 MPH (9 knots; 4.6 m/s)
Visibility: 6 or more miles (10+ km)
Ceiling: ceiling and visibility are OK
Clouds: unknown
Weather: no significant weather observed at this time

METAR text: GMML 170900Z 02009KT CAVOK 21/14 Q1019 NOSIG
Conditions at: GMML (LAAYOUNE/HASSAN , MA) observed 0900 UTC 17 June 2019
Temperature: 21.0°C (70°F)
Dewpoint: 14.0°C (57°F) [RH = 64%]
Pressure (altimeter): 30.09 inches Hg (1019.0 mb)
Winds: from the NNE (20 degrees) at 10 MPH (9 knots; 4.6 m/s)
Visibility: 6 or more miles (10+ km)
Ceiling: ceiling and visibility are OK
Clouds: unknown
Weather: no significant weather observed at this time

METAR text: GMML 170800Z 02007KT 8000 NSC 19/17 Q1019 NOSIG
Conditions at: GMML (LAAYOUNE/HASSAN , MA) observed 0800 UTC 17 June 2019
Temperature: 19.0°C (66°F)
Dewpoint: 17.0°C (63°F) [RH = 88%]
Pressure (altimeter): 30.09 inches Hg (1019.0 mb)
Winds: from the NNE (20 degrees) at 8 MPH (7 knots; 3.6 m/s)
Visibility: 5 miles ( 8 km)
Ceiling: at least 12,000 feet AGL
Clouds: sky clear below 12,000 feet AGL
Weather: no significant weather observed at this time

METAR text: GMML 170700Z 03005KT CAVOK 17/13 Q1018 NOSIG
Conditions at: GMML (LAAYOUNE/HASSAN , MA) observed 0700 UTC 17 June 2019
Temperature: 17.0°C (63°F)
Dewpoint: 13.0°C (55°F) [RH = 77%]
Pressure (altimeter): 30.06 inches Hg (1018.0 mb)
Winds: from the NNE (30 degrees) at 6 MPH (5 knots; 2.6 m/s)
Visibility: 6 or more miles (10+ km)
Ceiling: ceiling and visibility are OK
Clouds: unknown
Weather: no significant weather observed at this time

METAR text: GMML 170600Z 02006KT CAVOK 16/13 Q1018 NOSIG
Conditions at: GMML (LAAYOUNE/HASSAN , MA) observed 0600 UTC 17 June 2019
Temperature: 16.0°C (61°F)
Dewpoint: 13.0°C (55°F) [RH = 82%]
Pressure (altimeter): 30.06 inches Hg (1018.0 mb)
Winds: from the NNE (20 degrees) at 7 MPH (6 knots; 3.1 m/s)
Visibility: 6 or more miles (10+ km)
Ceiling: ceiling and visibility are OK
Clouds: unknown
Weather: no significant weather observed at this time

METAR text: GMML 170300Z 03006KT CAVOK 17/13 Q1019 NOSIG
Conditions at: GMML (LAAYOUNE/HASSAN , MA) observed 0300 UTC 17 June 2019
Temperature: 17.0°C (63°F)
Dewpoint: 13.0°C (55°F) [RH = 77%]
Pressure (altimeter): 30.09 inches Hg (1019.0 mb)
Winds: from the NNE (30 degrees) at 7 MPH (6 knots; 3.1 m/s)
Visibility: 6 or more miles (10+ km)
Ceiling: ceiling and visibility are OK
Clouds: unknown
Weather: no significant weather observed at this time

METAR text: GMML 170200Z 03005KT CAVOK 17/16 Q1020 NOSIG
Conditions at: GMML (LAAYOUNE/HASSAN , MA) observed 0200 UTC 17 June 2019
Temperature: 17.0°C (63°F)
Dewpoint: 16.0°C (61°F) [RH = 94%]
Pressure (altimeter): 30.12 inches Hg (1020.0 mb)
Winds: from the NNE (30 degrees) at 6 MPH (5 knots; 2.6 m/s)
Visibility: 6 or more miles (10+ km)
Ceiling: ceiling and visibility are OK
Clouds: unknown
Weather: no significant weather observed at this time

METAR text: GMML 170100Z 03007KT CAVOK 18/15 Q1020 NOSIG
Conditions at: GMML (LAAYOUNE/HASSAN , MA) observed 0100 UTC 17 June 2019
Temperature: 18.0°C (64°F)
Dewpoint: 15.0°C (59°F) [RH = 83%]
Pressure (altimeter): 30.12 inches Hg (1020.0 mb)
Winds: from the NNE (30 degrees) at 8 MPH (7 knots; 3.6 m/s)
Visibility: 6 or more miles (10+ km)
Ceiling: ceiling and visibility are OK
Clouds: unknown
Weather: no significant weather observed at this time

METAR text: GMML 170000Z 03008KT CAVOK 158/14 Q1020 NOSIG
Conditions at: GMML (LAAYOUNE/HASSAN , MA) observed 0000 UTC 17 June 2019
Temperature: 0.0°C (32°F)
Dewpoint: 14.0°C (57°F) [RH = 262%]
Pressure (altimeter): 30.12 inches Hg (1020.0 mb)
Winds: from the NNE (30 degrees) at 9 MPH (8 knots; 4.1 m/s)
Visibility: 6 or more miles (10+ km)
Ceiling: ceiling and visibility are OK
Clouds: unknown
Weather: no significant weather observed at this time

METAR text: GMML 162300Z 03010KT CAVOK 19/14 Q1021 NOSIG
Conditions at: GMML (LAAYOUNE/HASSAN , MA) observed 2300 UTC 16 June 2019
Temperature: 19.0°C (66°F)
Dewpoint: 14.0°C (57°F) [RH = 73%]
Pressure (altimeter): 30.15 inches Hg (1021.0 mb)
Winds: from the NNE (30 degrees) at 12 MPH (10 knots; 5.1 m/s)
Visibility: 6 or more miles (10+ km)
Ceiling: ceiling and visibility are OK
Clouds: unknown
Weather: no significant weather observed at this time

METAR text: GMML 162200Z 02012KT CAVOK 19/14 Q1020 NOSIG
Conditions at: GMML (LAAYOUNE/HASSAN , MA) observed 2200 UTC 16 June 2019
Temperature: 19.0°C (66°F)
Dewpoint: 14.0°C (57°F) [RH = 73%]
Pressure (altimeter): 30.12 inches Hg (1020.0 mb)
Winds: from the NNE (20 degrees) at 14 MPH (12 knots; 6.2 m/s)
Visibility: 6 or more miles (10+ km)
Ceiling: ceiling and visibility are OK
Clouds: unknown
Weather: no significant weather observed at this time

METAR text: GMML 162100Z 01012KT CAVOK 20/13 Q1020 NOSIG
Conditions at: GMML (LAAYOUNE/HASSAN , MA) observed 2100 UTC 16 June 2019
Temperature: 20.0°C (68°F)
Dewpoint: 13.0°C (55°F) [RH = 64%]
Pressure (altimeter): 30.12 inches Hg (1020.0 mb)
Winds: from the N (10 degrees) at 14 MPH (12 knots; 6.2 m/s)
Visibility: 6 or more miles (10+ km)
Ceiling: ceiling and visibility are OK
Clouds: unknown
Weather: no significant weather observed at this time

METAR text: GMML 162000Z 35011KT CAVOK 21/13 Q1019 NOSIG
Conditions at: GMML (LAAYOUNE/HASSAN , MA) observed 2000 UTC 16 June 2019
Temperature: 21.0°C (70°F)
Dewpoint: 13.0°C (55°F) [RH = 60%]
Pressure (altimeter): 30.09 inches Hg (1019.0 mb)
Winds: from the N (350 degrees) at 13 MPH (11 knots; 5.7 m/s)
Visibility: 6 or more miles (10+ km)
Ceiling: ceiling and visibility are OK
Clouds: unknown
Weather: no significant weather observed at this time

METAR text: GMML 161900Z 36013KT CAVOK 24/12 Q1019 NOSIG
Conditions at: GMML (LAAYOUNE/HASSAN , MA) observed 1900 UTC 16 June 2019
Temperature: 24.0°C (75°F)
Dewpoint: 12.0°C (54°F) [RH = 47%]
Pressure (altimeter): 30.09 inches Hg (1019.0 mb)
Winds: from the N (360 degrees) at 15 MPH (13 knots; 6.7 m/s)
Visibility: 6 or more miles (10+ km)
Ceiling: ceiling and visibility are OK
Clouds: unknown
Weather: no significant weather observed at this time

METAR text: GMML 161800Z 02017KT CAVOK 25/13 Q1018 NOSIG
Conditions at: GMML (LAAYOUNE/HASSAN , MA) observed 1800 UTC 16 June 2019
Temperature: 25.0°C (77°F)
Dewpoint: 13.0°C (55°F) [RH = 47%]
Pressure (altimeter): 30.06 inches Hg (1018.0 mb)
Winds: from the NNE (20 degrees) at 20 MPH (17 knots; 8.7 m/s)
Visibility: 6 or more miles (10+ km)
Ceiling: ceiling and visibility are OK
Clouds: unknown
Weather: no significant weather observed at this time

METAR text: GMML 161700Z 36019KT CAVOK 26/13 Q1018 NOSIG
Conditions at: GMML (LAAYOUNE/HASSAN , MA) observed 1700 UTC 16 June 2019
Temperature: 26.0°C (79°F)
Dewpoint: 13.0°C (55°F) [RH = 45%]
Pressure (altimeter): 30.06 inches Hg (1018.0 mb)
Winds: from the N (360 degrees) at 22 MPH (19 knots; 9.8 m/s)
Visibility: 6 or more miles (10+ km)
Ceiling: ceiling and visibility are OK
Clouds: unknown
Weather: no significant weather observed at this time

METAR text: GMML 161600Z 35017KT CAVOK 26/13 Q1019 NOSIG
Conditions at: GMML (LAAYOUNE/HASSAN , MA) observed 1600 UTC 16 June 2019
Temperature: 26.0°C (79°F)
Dewpoint: 13.0°C (55°F) [RH = 45%]
Pressure (altimeter): 30.09 inches Hg (1019.0 mb)
Winds: from the N (350 degrees) at 20 MPH (17 knots; 8.7 m/s)
Visibility: 6 or more miles (10+ km)
Ceiling: ceiling and visibility are OK
Clouds: unknown
Weather: no significant weather observed at this time

Forecast for: GMML (LAAYOUNE/HASSAN , MA)
Text: TAF GMML 172300Z 1800/1906 36008KT 9999 SCT010
Forecast period: 0000 to 1000 UTC 18 June 2019
Forecast type: FROM: standard forecast or significant change
Winds: from the N (360 degrees) at 9 MPH (8 knots; 4.1 m/s)
Visibility: 6 or more miles 10+ km)
Ceiling: at least 12,000 feet AGL
Clouds: scattered clouds at 1000 feet AGL
Weather: no significant weather forecast for this period
Text: PROB30 1802/1807 3000 BR SCT008
Forecast period: 0200 to 0700 UTC 18 June 2019
Forecast type: PROBABLE: 30 percent likelihood of the following during this time
Visibility: 1.86 miles (2.99 km)
Ceiling: at least 12,000 feet AGL
Clouds: scattered clouds at 800 feet AGL
Weather: BR  (mist)
Text: BECMG 1810/1812 NSC
Forecast period: 1000 UTC 18 June 2019 to 0000 UTC 19 June 2019
Forecast type: BECOMING: Conditions expected to become as follows by 1200 UTC 18 June 2019
Winds: from the N (360 degrees) at 9 MPH (8 knots; 4.1 m/s)
Visibility: 6 or more miles 10+ km)
Ceiling: unknown
Clouds: missing
Weather: no significant weather forecast for this period
Text: BECMG 1900/1902 BKN010
Forecast period: 0000 to 0600 UTC 19 June 2019
Forecast type: BECOMING: Conditions expected to become as follows by 0200 UTC 19 June 2019
Winds: from the N (360 degrees) at 9 MPH (8 knots; 4.1 m/s)
Visibility: 6 or more miles 10+ km)
Ceiling: 1000 feet AGL
Clouds: broken clouds at 1000 feet AGL
Weather: no significant weather forecast for this period